Time;durP1;ratioP1;P1;durP2;ratioP2;P2;SDS_P1;SDS_P2;PMS_P1;PMS_P2;Temp;Humidity;BMP_temperature;BMP_pressure;BME280_temperature;BME280_humidity;BME280_pressure;Samples;Min_cycle;Max_cycle;Signal;HPM_P1;HPM_P2
2023/06/21 00:00:12;;;;;;;0.10;0.00;;;20.50;99.90;;;;;;5093208;28;20181;-82
2023/06/21 00:02:39;;;;;;;0.10;0.00;;;20.50;99.90;;;;;;5088415;28;20456;-82
2023/06/21 00:05:08;;;;;;;0.10;0.10;;;20.40;99.90;;;;;;5088134;28;20455;-82
2023/06/21 00:07:35;;;;;;;0.10;0.00;;;20.50;99.90;;;;;;5087549;28;20439;-82
2023/06/21 00:10:01;;;;;;;0.10;0.10;;;20.70;99.90;;;;;;5088090;28;20500;-81
2023/06/21 00:12:27;;;;;;;0.10;0.10;;;20.50;99.90;;;;;;5093641;28;20972;-81
2023/06/21 00:14:53;;;;;;;0.10;0.10;;;20.50;99.90;;;;;;5089383;28;20464;-81
2023/06/21 00:17:19;;;;;;;0.10;0.00;;;20.60;99.90;;;;;;5085068;28;20840;-83
2023/06/21 00:19:44;;;;;;;0.10;0.00;;;20.70;99.90;;;;;;5087696;28;20196;-82
2023/06/21 00:22:10;;;;;;;0.10;0.00;;;20.50;99.90;;;;;;5087814;28;20318;-82
2023/06/21 00:24:36;;;;;;;0.10;0.00;;;20.60;99.90;;;;;;5088786;28;20189;-82
2023/06/21 00:27:01;;;;;;;0.10;0.00;;;20.60;99.90;;;;;;5086947;28;20200;-82
2023/06/21 00:29:27;;;;;;;0.10;0.10;;;20.70;99.90;;;;;;5089967;28;20570;-82
2023/06/21 00:31:52;;;;;;;0.10;0.10;;;20.70;99.90;;;;;;5092398;28;20304;-81
2023/06/21 00:34:18;;;;;;;0.10;0.00;;;20.70;99.90;;;;;;5092013;28;20170;-81
2023/06/21 00:36:44;;;;;;;0.10;0.10;;;20.60;99.90;;;;;;5084688;28;20189;-80
2023/06/21 00:39:12;;;;;;;0.10;0.10;;;20.50;99.90;;;;;;5081884;28;20182;-82
2023/06/21 00:41:38;;;;;;;0.10;0.10;;;20.40;99.90;;;;;;5085481;28;20323;-81
2023/06/21 00:44:03;;;;;;;0.10;0.10;;;20.20;99.90;;;;;;5090248;28;20857;-81
2023/06/21 00:46:29;;;;;;;0.10;0.10;;;19.80;99.90;;;;;;5082085;28;20181;-81
2023/06/21 00:48:57;;;;;;;0.10;0.10;;;19.80;99.90;;;;;;5088844;28;20326;-81
2023/06/21 00:51:23;;;;;;;0.10;0.10;;;19.80;99.90;;;;;;5085597;28;20489;-81
2023/06/21 00:53:49;;;;;;;0.10;0.00;;;19.60;99.90;;;;;;5074840;28;21077;-80
2023/06/21 00:56:16;;;;;;;0.10;0.00;;;19.50;99.90;;;;;;5085681;28;20439;-80
2023/06/21 00:58:43;;;;;;;0.10;0.10;;;19.60;99.90;;;;;;5070569;28;20486;-80
2023/06/21 01:01:08;;;;;;;0.10;0.10;;;19.90;99.90;;;;;;5086666;28;20439;-80
2023/06/21 01:03:35;;;;;;;0.10;0.10;;;19.60;99.90;;;;;;5090092;28;20426;-79
2023/06/21 01:06:23;;;;;;;0.10;0.10;;;19.50;99.90;;;;;;5085224;28;20233;-79
2023/06/21 01:09:19;;;;;;;0.10;0.10;;;19.40;99.90;;;;;;5090687;28;20483;-79
2023/06/21 01:11:57;;;;;;;0.10;0.10;;;19.70;99.90;;;;;;5080464;28;20482;-78
2023/06/21 01:14:42;;;;;;;0.10;0.00;;;19.50;99.90;;;;;;5082118;28;21125;-79
2023/06/21 01:17:09;;;;;;;0.10;0.10;;;19.40;99.90;;;;;;5067882;28;20863;-79
2023/06/21 01:19:55;;;;;;;0.10;0.10;;;19.30;99.90;;;;;;5093546;28;20971;-79
2023/06/21 01:22:20;;;;;;;0.10;0.10;;;19.40;99.90;;;;;;5093252;28;20982;-80
2023/06/21 01:25:00;;;;;;;0.10;0.10;;;19.30;99.90;;;;;;5093000;28;20515;-80
2023/06/21 01:27:38;;;;;;;0.10;0.10;;;19.20;99.90;;;;;;5093184;28;20189;-79
2023/06/21 01:30:04;;;;;;;0.10;0.10;;;19.00;99.90;;;;;;5089887;28;20438;-79
2023/06/21 01:32:31;;;;;;;0.10;0.10;;;19.10;99.90;;;;;;5093309;28;20437;-79
2023/06/21 01:34:57;;;;;;;0.10;0.10;;;19.20;99.90;;;;;;5092180;28;20439;-80
2023/06/21 01:37:23;;;;;;;0.10;0.10;;;19.20;99.90;;;;;;5092315;28;20492;-81
2023/06/21 01:39:50;;;;;;;0.10;0.10;;;19.10;99.90;;;;;;5093073;28;20447;-80
2023/06/21 01:42:15;;;;;;;0.10;0.10;;;19.00;99.90;;;;;;5091863;28;20447;-80
2023/06/21 01:44:41;;;;;;;0.10;0.10;;;19.10;99.90;;;;;;5073628;28;20434;-80
2023/06/21 01:47:07;;;;;;;0.10;0.10;;;19.10;99.90;;;;;;5088662;28;20177;-80
2023/06/21 01:49:33;;;;;;;0.10;0.10;;;19.00;99.90;;;;;;5075208;28;20226;-81
2023/06/21 01:52:00;;;;;;;0.10;0.10;;;19.00;99.90;;;;;;5090684;28;20481;-81
2023/06/21 01:54:27;;;;;;;0.10;0.10;;;18.90;99.90;;;;;;5075125;28;20756;-81
2023/06/21 01:56:59;;;;;;;0.10;0.10;;;19.20;99.90;;;;;;5089104;28;21136;-79
2023/06/21 01:59:24;;;;;;;0.10;0.10;;;18.90;99.90;;;;;;5092575;28;20720;-80
2023/06/21 02:01:51;;;;;;;0.10;0.10;;;18.70;99.90;;;;;;5088009;28;20450;-79
2023/06/21 02:04:19;;;;;;;0.10;0.10;;;18.60;99.90;;;;;;5091596;28;20730;-78
2023/06/21 02:06:45;;;;;;;0.10;0.10;;;18.70;99.90;;;;;;5089664;28;20543;-79
2023/06/21 02:09:10;;;;;;;0.10;0.10;;;18.70;99.90;;;;;;5074104;28;20443;-79
2023/06/21 02:11:36;;;;;;;0.10;0.10;;;19.00;99.90;;;;;;5073825;28;20488;-80
2023/06/21 02:14:02;;;;;;;0.10;0.10;;;18.80;99.90;;;;;;5091023;28;20186;-80
2023/06/21 02:16:29;;;;;;;0.10;0.10;;;18.80;99.90;;;;;;5088467;28;20518;-80
2023/06/21 02:18:55;;;;;;;0.10;0.10;;;18.70;99.90;;;;;;5087358;28;20188;-79
2023/06/21 02:21:21;;;;;;;0.10;0.10;;;18.70;99.90;;;;;;5088301;28;20447;-81
2023/06/21 02:23:46;;;;;;;0.10;0.10;;;18.80;99.90;;;;;;5091663;28;20627;-80
2023/06/21 02:26:12;;;;;;;0.10;0.10;;;18.60;99.90;;;;;;5089468;28;20275;-80
2023/06/21 02:28:38;;;;;;;0.10;0.10;;;18.80;99.90;;;;;;5071325;28;20223;-82
2023/06/21 02:31:03;;;;;;;0.10;0.10;;;18.50;99.90;;;;;;5089271;28;20217;-82
2023/06/21 02:33:31;;;;;;;0.10;0.10;;;18.60;99.90;;;;;;5088617;28;20671;-81
2023/06/21 02:35:56;;;;;;;0.10;0.10;;;18.70;99.90;;;;;;5071033;28;20189;-80
2023/06/21 02:38:25;;;;;;;0.10;0.10;;;18.70;99.90;;;;;;5087853;28;20817;-83
2023/06/21 02:40:50;;;;;;;0.10;0.10;;;18.70;99.90;;;;;;5069911;28;20200;-82
2023/06/21 02:43:16;;;;;;;0.10;0.10;;;18.60;99.90;;;;;;5093768;28;20442;-83
2023/06/21 02:45:42;;;;;;;0.10;0.10;;;18.60;99.90;;;;;;5069485;28;20482;-83
2023/06/21 02:48:07;;;;;;;0.10;0.10;;;18.40;99.90;;;;;;5072658;28;20197;-83
2023/06/21 02:50:32;;;;;;;0.10;0.10;;;18.40;99.90;;;;;;5089557;28;20208;-82
2023/06/21 02:52:58;;;;;;;0.10;0.10;;;18.40;99.90;;;;;;5091119;28;20181;-82
2023/06/21 02:55:23;;;;;;;0.10;0.10;;;18.40;99.90;;;;;;5080303;28;20268;-82
2023/06/21 02:57:49;;;;;;;0.10;0.10;;;18.50;99.90;;;;;;5089549;28;20671;-82
2023/06/21 03:00:19;;;;;;;0.10;0.10;;;18.30;99.90;;;;;;5086490;28;20188;-82
2023/06/21 03:02:45;;;;;;;0.10;0.10;;;18.10;99.90;;;;;;5089554;28;20622;-82
2023/06/21 03:05:14;;;;;;;0.10;0.10;;;18.20;99.90;;;;;;5089162;28;20489;-82
2023/06/21 03:07:43;;;;;;;0.10;0.10;;;18.30;99.90;;;;;;5088898;28;20186;-82
2023/06/21 03:10:13;;;;;;;0.10;0.10;;;18.30;99.90;;;;;;5089795;28;20466;-83
2023/06/21 03:12:43;;;;;;;0.10;0.10;;;18.30;99.90;;;;;;5088887;28;20542;-81
2023/06/21 03:15:09;;;;;;;0.10;0.10;;;18.20;99.90;;;;;;5087474;28;20431;-81
2023/06/21 03:17:36;;;;;;;0.10;0.10;;;18.20;99.90;;;;;;5091169;28;20523;-83
2023/06/21 03:20:09;;;;;;;0.10;0.10;;;18.30;99.90;;;;;;5090163;28;20461;-81
2023/06/21 03:22:35;;;;;;;0.10;0.10;;;18.10;99.90;;;;;;5089945;28;20452;-82
2023/06/21 03:25:01;;;;;;;0.10;0.10;;;18.30;99.90;;;;;;5086680;28;20438;-83
2023/06/21 03:27:27;;;;;;;0.10;0.10;;;18.30;99.90;;;;;;5089064;28;20455;-83
2023/06/21 03:29:53;;;;;;;0.10;0.10;;;18.20;99.90;;;;;;5091731;28;20623;-82
2023/06/21 03:32:19;;;;;;;0.10;0.10;;;18.40;99.90;;;;;;5104881;28;20453;-83
2023/06/21 03:34:45;;;;;;;0.10;0.10;;;18.20;99.90;;;;;;5099568;28;20208;-83
2023/06/21 03:37:10;;;;;;;0.10;0.10;;;18.20;99.90;;;;;;5091446;28;20470;-82
2023/06/21 03:39:36;;;;;;;0.10;0.10;;;18.20;99.90;;;;;;5089822;28;20181;-82
2023/06/21 03:42:01;;;;;;;0.10;0.10;;;18.20;99.90;;;;;;5090737;28;20207;-82
2023/06/21 03:44:27;;;;;;;0.10;0.10;;;18.30;99.90;;;;;;5090942;28;20189;-83
2023/06/21 03:46:52;;;;;;;0.10;0.10;;;18.10;99.90;;;;;;5091126;28;20658;-83
2023/06/21 03:49:20;;;;;;;0.10;0.10;;;18.30;99.90;;;;;;5083260;28;20185;-82
2023/06/21 03:51:46;;;;;;;0.10;0.10;;;18.10;99.90;;;;;;5085914;28;20213;-83
2023/06/21 03:54:11;;;;;;;0.10;0.10;;;18.00;99.90;;;;;;5090533;28;21174;-83
2023/06/21 03:56:37;;;;;;;0.10;0.10;;;17.90;99.90;;;;;;5088926;28;20221;-83
2023/06/21 03:59:02;;;;;;;0.10;0.10;;;18.10;99.90;;;;;;5084888;28;20547;-83
2023/06/21 04:01:28;;;;;;;0.10;0.10;;;18.10;99.90;;;;;;5086310;28;20212;-82
2023/06/21 04:03:53;;;;;;;0.10;0.10;;;18.10;99.90;;;;;;5087518;28;20177;-82
2023/06/21 04:06:18;;;;;;;0.10;0.10;;;18.10;99.90;;;;;;5089301;28;20232;-84
2023/06/21 04:08:44;;;;;;;0.10;0.10;;;18.10;99.90;;;;;;5087223;28;20341;-82
2023/06/21 04:11:09;;;;;;;0.10;0.10;;;18.20;99.90;;;;;;5089007;28;20228;-82
2023/06/21 04:13:35;;;;;;;0.10;0.10;;;18.20;99.90;;;;;;5089810;28;20188;-83
2023/06/21 04:16:01;;;;;;;0.10;0.10;;;18.20;99.90;;;;;;5085985;28;20708;-82
2023/06/21 04:18:26;;;;;;;0.10;0.10;;;18.20;99.90;;;;;;5086995;28;20549;-82
2023/06/21 04:20:52;;;;;;;0.10;0.10;;;18.10;99.90;;;;;;5088447;28;20218;-82
2023/06/21 04:23:17;;;;;;;0.10;0.10;;;18.20;99.90;;;;;;5084145;28;20182;-80
2023/06/21 04:25:43;;;;;;;0.10;0.10;;;18.10;99.90;;;;;;5088937;28;20559;-80
2023/06/21 04:28:10;;;;;;;0.10;0.10;;;18.10;99.90;;;;;;5095532;28;20276;-82
2023/06/21 04:30:35;;;;;;;0.10;0.10;;;18.20;99.90;;;;;;5067207;28;20257;-83
2023/06/21 04:33:01;;;;;;;0.10;0.10;;;18.10;99.90;;;;;;5086172;28;20458;-81
2023/06/21 04:35:27;;;;;;;0.10;0.10;;;18.20;99.90;;;;;;5090867;28;20663;-81
2023/06/21 04:37:52;;;;;;;0.10;0.10;;;18.30;99.90;;;;;;5070340;28;20189;-82
2023/06/21 04:40:20;;;;;;;0.10;0.10;;;18.40;99.90;;;;;;5086628;28;20671;-82
2023/06/21 04:42:47;;;;;;;0.10;0.10;;;18.40;99.90;;;;;;5092802;28;20180;-83
2023/06/21 04:45:16;;;;;;;0.10;0.10;;;18.40;99.90;;;;;;5086639;28;20454;-82
2023/06/21 04:47:43;;;;;;;0.10;0.10;;;18.40;99.90;;;;;;5087136;28;20552;-82
2023/06/21 04:50:10;;;;;;;0.10;0.10;;;18.50;99.90;;;;;;5092901;28;20438;-83
2023/06/21 04:52:37;;;;;;;0.10;0.10;;;18.50;99.90;;;;;;5099261;28;20450;-83
2023/06/21 04:55:06;;;;;;;0.10;0.10;;;18.50;99.90;;;;;;5093224;28;20446;-82
2023/06/21 04:57:33;;;;;;;0.10;0.10;;;18.50;99.90;;;;;;5083422;28;21225;-82
2023/06/21 04:59:58;;;;;;;0.10;0.10;;;18.40;99.90;;;;;;5083594;28;20805;-82
2023/06/21 05:02:26;;;;;;;0.10;0.10;;;18.50;99.90;;;;;;5081985;28;20443;-80
2023/06/21 05:04:51;;;;;;;0.10;0.10;;;18.60;99.90;;;;;;5079932;28;20233;-81
2023/06/21 05:07:17;;;;;;;0.10;0.10;;;18.80;99.90;;;;;;5083046;28;20455;-80
2023/06/21 05:09:43;;;;;;;0.10;0.10;;;18.70;99.90;;;;;;5084314;28;20192;-81
2023/06/21 05:12:09;;;;;;;0.10;0.10;;;18.90;99.90;;;;;;5079133;28;20296;-80
2023/06/21 05:14:35;;;;;;;0.10;0.10;;;18.80;99.90;;;;;;5068291;28;20671;-80
2023/06/21 05:17:00;;;;;;;0.10;0.10;;;18.80;99.90;;;;;;5086805;28;20514;-83
2023/06/21 05:19:26;;;;;;;0.10;0.10;;;18.80;99.90;;;;;;5071896;28;20279;-81
2023/06/21 05:21:51;;;;;;;0.10;0.10;;;18.90;99.90;;;;;;5069584;28;20733;-81
2023/06/21 05:24:17;;;;;;;0.10;0.10;;;18.80;99.90;;;;;;5094311;28;20181;-80
2023/06/21 05:26:44;;;;;;;0.10;0.10;;;18.80;99.90;;;;;;5071401;28;20631;-80
2023/06/21 05:29:13;;;;;;;0.10;0.10;;;18.90;99.90;;;;;;5090794;28;20264;-80
2023/06/21 05:31:42;;;;;;;0.10;0.10;;;18.90;99.90;;;;;;5067273;28;20558;-81
2023/06/21 05:34:08;;;;;;;0.10;0.10;;;18.90;99.90;;;;;;5086094;28;20492;-81
2023/06/21 05:36:33;;;;;;;0.10;0.10;;;18.90;99.90;;;;;;5068698;28;20477;-82
2023/06/21 05:38:59;;;;;;;0.10;0.00;;;19.00;99.90;;;;;;5087352;28;20655;-82
2023/06/21 05:41:24;;;;;;;0.10;0.10;;;19.00;99.90;;;;;;5087237;28;20190;-81
2023/06/21 05:43:50;;;;;;;0.10;0.00;;;19.10;99.90;;;;;;5088463;28;20181;-80
2023/06/21 05:46:15;;;;;;;0.10;0.10;;;19.10;99.90;;;;;;5089826;28;20197;-81
2023/06/21 05:48:41;;;;;;;0.10;0.10;;;19.10;99.90;;;;;;5090583;28;20189;-79
2023/06/21 05:51:06;;;;;;;0.10;0.10;;;19.20;99.90;;;;;;5087079;28;20221;-81
2023/06/21 05:53:32;;;;;;;0.10;0.10;;;19.30;99.90;;;;;;5088368;28;20194;-80
2023/06/21 05:55:58;;;;;;;0.10;0.10;;;19.40;99.90;;;;;;5089638;28;20219;-81
2023/06/21 05:58:24;;;;;;;0.10;0.10;;;19.60;99.90;;;;;;5077403;28;20210;-82
2023/06/21 06:00:49;;;;;;;0.10;0.10;;;19.60;99.90;;;;;;5082723;28;20490;-82
2023/06/21 06:03:15;;;;;;;0.10;0.10;;;19.80;99.90;;;;;;5095238;28;20181;-81
2023/06/21 06:05:41;;;;;;;0.10;0.10;;;20.00;99.90;;;;;;5063820;28;20370;-83
2023/06/21 06:08:06;;;;;;;0.10;0.10;;;20.10;99.90;;;;;;5073754;28;20189;-80
2023/06/21 06:10:32;;;;;;;0.10;0.00;;;20.00;99.90;;;;;;5075931;28;20271;-82
2023/06/21 06:12:58;;;;;;;0.10;0.00;;;20.00;99.90;;;;;;5066133;28;20198;-82
2023/06/21 06:15:23;;;;;;;0.10;0.10;;;20.00;99.90;;;;;;5067628;28;20205;-82
2023/06/21 06:17:48;;;;;;;0.10;0.00;;;19.90;99.90;;;;;;5063301;28;20187;-81
2023/06/21 06:20:14;;;;;;;0.10;0.00;;;19.80;99.90;;;;;;5067145;28;20178;-82
2023/06/21 06:22:40;;;;;;;0.10;0.10;;;19.90;99.90;;;;;;5067582;28;20658;-80
2023/06/21 06:25:06;;;;;;;0.10;0.10;;;19.90;99.90;;;;;;5066227;28;20186;-81
2023/06/21 06:27:32;;;;;;;0.10;0.00;;;19.70;99.90;;;;;;5060554;28;20650;-81
2023/06/21 06:29:57;;;;;;;0.10;0.00;;;19.80;99.90;;;;;;5068436;28;21077;-81
2023/06/21 06:32:23;;;;;;;0.10;0.10;;;19.90;99.90;;;;;;5065569;28;20451;-82
2023/06/21 06:34:49;;;;;;;0.10;0.07;;;19.80;99.90;;;;;;5068295;28;20259;-83
2023/06/21 06:37:14;;;;;;;0.10;0.00;;;19.70;99.90;;;;;;5070912;28;20178;-80
2023/06/21 06:39:40;;;;;;;0.10;0.10;;;19.80;99.90;;;;;;5069676;28;20185;-81
2023/06/21 06:42:06;;;;;;;0.10;0.00;;;19.80;99.90;;;;;;5066616;28;20640;-81
2023/06/21 06:44:32;;;;;;;0.10;0.00;;;19.70;99.90;;;;;;5059511;28;20495;-82
2023/06/21 06:46:57;;;;;;;0.10;0.10;;;19.80;99.90;;;;;;5067611;28;20190;-81
2023/06/21 06:49:23;;;;;;;0.10;0.00;;;19.90;99.90;;;;;;5069848;28;20186;-82
2023/06/21 06:51:48;;;;;;;0.10;0.10;;;19.80;99.90;;;;;;5066425;28;20229;-83
2023/06/21 06:54:14;;;;;;;0.10;0.00;;;20.00;99.90;;;;;;5066935;28;20182;-83
2023/06/21 06:56:40;;;;;;;0.10;0.00;;;20.20;99.90;;;;;;5068503;28;20189;-80
2023/06/21 06:59:05;;;;;;;0.10;0.10;;;20.20;99.90;;;;;;5063954;28;20190;-81
2023/06/21 07:01:30;;;;;;;0.10;0.00;;;20.50;99.90;;;;;;5064997;28;20700;-82
2023/06/21 07:03:56;;;;;;;0.10;0.00;;;20.50;99.90;;;;;;5066800;28;20210;-85
2023/06/21 07:06:22;;;;;;;0.10;0.00;;;20.70;99.90;;;;;;5062908;28;20229;-82
2023/06/21 07:08:48;;;;;;;0.10;0.10;;;20.70;99.90;;;;;;5064796;28;20189;-82
2023/06/21 07:11:13;;;;;;;0.10;0.00;;;20.80;99.90;;;;;;5067260;28;20850;-81
2023/06/21 07:13:40;;;;;;;0.10;0.00;;;20.80;99.90;;;;;;5069588;28;20182;-79
2023/06/21 07:16:05;;;;;;;0.10;0.10;;;20.80;99.90;;;;;;5064605;28;20661;-79
2023/06/21 07:18:31;;;;;;;0.10;0.00;;;20.90;99.90;;;;;;5067807;28;20436;-79
2023/06/21 07:20:56;;;;;;;0.10;0.00;;;20.90;99.90;;;;;;5078650;28;20190;-79
2023/06/21 07:23:22;;;;;;;0.10;0.00;;;20.90;99.90;;;;;;5069235;28;20262;-79
2023/06/21 07:25:48;;;;;;;0.10;0.10;;;20.90;99.90;;;;;;5073196;28;20205;-80
2023/06/21 07:28:13;;;;;;;0.10;0.00;;;20.90;99.90;;;;;;5082026;28;20551;-79
2023/06/21 07:30:39;;;;;;;0.10;0.00;;;21.10;99.90;;;;;;5069854;28;20292;-79
2023/06/21 07:33:08;;;;;;;0.10;0.00;;;21.10;99.90;;;;;;5080593;28;20193;-80
2023/06/21 07:35:34;;;;;;;0.10;0.00;;;21.20;99.90;;;;;;5081629;28;20440;-81
2023/06/21 07:37:59;;;;;;;0.10;0.10;;;21.20;99.90;;;;;;5069871;28;20455;-78
2023/06/21 07:40:25;;;;;;;0.10;0.00;;;21.10;99.90;;;;;;5080178;28;20201;-80
2023/06/21 07:42:50;;;;;;;0.10;0.00;;;21.00;99.90;;;;;;5082091;28;20181;-80
2023/06/21 07:45:16;;;;;;;0.10;0.00;;;21.10;99.90;;;;;;5081259;28;20364;-80
2023/06/21 07:47:41;;;;;;;0.10;0.00;;;21.40;99.90;;;;;;5067929;28;20186;-81
2023/06/21 07:50:07;;;;;;;0.10;0.00;;;21.60;99.90;;;;;;5073385;28;20238;-81
2023/06/21 07:52:33;;;;;;;0.10;0.00;;;21.60;99.90;;;;;;5076856;28;20205;-77
2023/06/21 07:54:59;;;;;;;0.10;0.00;;;21.60;99.90;;;;;;5070028;28;20440;-81
2023/06/21 07:57:24;;;;;;;0.10;0.00;;;21.40;99.90;;;;;;5070104;28;20781;-79
2023/06/21 07:59:50;;;;;;;0.10;0.00;;;21.30;99.90;;;;;;5074244;28;20672;-80
2023/06/21 08:02:18;;;;;;;0.10;0.00;;;21.30;99.90;;;;;;5068049;28;20200;-79
2023/06/21 08:04:44;;;;;;;0.10;0.00;;;21.50;99.90;;;;;;5070411;28;20593;-80
2023/06/21 08:07:10;;;;;;;0.10;0.00;;;21.40;99.90;;;;;;5087536;28;20461;-81
2023/06/21 08:09:36;;;;;;;0.10;0.10;;;21.30;99.90;;;;;;5087833;28;20447;-75
2023/06/21 08:12:01;;;;;;;0.10;0.00;;;21.20;99.90;;;;;;5086484;28;20224;-77
2023/06/21 08:14:28;;;;;;;0.10;0.00;;;21.10;99.90;;;;;;5089929;28;20227;-76
2023/06/21 08:16:54;;;;;;;0.10;0.00;;;21.60;99.90;;;;;;5089661;28;20919;-77
2023/06/21 08:19:19;;;;;;;0.10;0.00;;;21.80;99.90;;;;;;5088854;28;20195;-76
2023/06/21 08:21:45;;;;;;;0.10;0.00;;;21.80;99.90;;;;;;5089190;28;20192;-77
2023/06/21 08:24:10;;;;;;;0.10;0.10;;;22.00;99.90;;;;;;5073616;28;20189;-74
2023/06/21 08:26:36;;;;;;;0.10;0.00;;;22.00;99.90;;;;;;5091107;28;20608;-75
2023/06/21 08:29:02;;;;;;;0.10;0.00;;;22.30;99.90;;;;;;5088130;28;20185;-78
2023/06/21 08:31:27;;;;;;;0.10;0.00;;;22.70;99.90;;;;;;5090348;28;20239;-74
2023/06/21 08:33:53;;;;;;;0.10;0.00;;;22.60;99.90;;;;;;5086742;28;20568;-76
2023/06/21 08:36:19;;;;;;;0.10;0.00;;;22.30;99.90;;;;;;5089069;28;20185;-75
2023/06/21 08:38:45;;;;;;;0.10;0.00;;;22.00;99.90;;;;;;5084383;28;20604;-75
2023/06/21 08:41:11;;;;;;;0.10;0.00;;;21.90;99.90;;;;;;5086138;28;20538;-76
2023/06/21 08:43:37;;;;;;;0.10;0.00;;;21.80;99.90;;;;;;5087034;28;20526;-75
2023/06/21 08:46:05;;;;;;;0.10;0.00;;;22.30;99.90;;;;;;5084429;28;20268;-76
2023/06/21 08:48:32;;;;;;;0.10;0.00;;;22.70;99.90;;;;;;5068973;28;20565;-76
2023/06/21 08:50:59;;;;;;;0.10;0.00;;;22.60;99.90;;;;;;5084144;28;21312;-75
2023/06/21 08:53:50;;;;;;;0.00;0.00;;;22.40;99.90;;;;;;5086326;28;20473;-75
2023/06/21 08:56:23;;;;;;;0.00;0.00;;;22.60;99.90;;;;;;5091249;28;20438;-77
2023/06/21 08:59:05;;;;;;;0.00;0.00;;;22.80;99.90;;;;;;5067882;28;20434;-75
2023/06/21 09:01:44;;;;;;;0.00;0.00;;;22.80;99.90;;;;;;5081678;28;20563;-75
2023/06/21 09:04:15;;;;;;;0.00;0.00;;;22.60;99.90;;;;;;5067625;28;20450;-75
2023/06/21 09:06:43;;;;;;;0.10;0.00;;;22.30;99.90;;;;;;5082133;28;20471;-74
2023/06/21 09:09:11;;;;;;;0.10;0.00;;;22.20;99.90;;;;;;5087228;28;20451;-75
2023/06/21 09:11:40;;;;;;;0.10;0.00;;;22.90;99.90;;;;;;5069484;28;20491;-77
2023/06/21 09:14:07;;;;;;;0.10;0.00;;;23.00;99.90;;;;;;5070554;28;21076;-75
2023/06/21 09:16:32;;;;;;;0.10;0.00;;;23.30;99.90;;;;;;5085176;28;20477;-75
2023/06/21 09:18:58;;;;;;;0.10;0.00;;;23.30;99.90;;;;;;5070292;28;20443;-75
2023/06/21 09:21:25;;;;;;;0.10;0.00;;;23.30;99.90;;;;;;5071938;28;20189;-74
2023/06/21 09:23:50;;;;;;;0.10;0.00;;;23.00;99.90;;;;;;5075013;28;20204;-75
2023/06/21 09:26:17;;;;;;;0.10;0.00;;;22.90;99.90;;;;;;5100527;28;20441;-75
2023/06/21 09:28:44;;;;;;;0.10;0.00;;;22.60;99.90;;;;;;5091522;28;20296;-76
2023/06/21 09:31:10;;;;;;;0.10;0.00;;;22.40;99.90;;;;;;5068747;28;20540;-76
2023/06/21 09:33:36;;;;;;;0.10;0.00;;;22.70;99.90;;;;;;5089319;28;20454;-75
2023/06/21 09:36:06;;;;;;;0.10;0.00;;;23.50;99.90;;;;;;5067139;28;20458;-75
2023/06/21 09:38:35;;;;;;;0.10;0.00;;;24.00;99.90;;;;;;5099814;28;20446;-78
2023/06/21 09:41:01;;;;;;;0.10;0.00;;;23.80;99.90;;;;;;5073496;28;21064;-74
2023/06/21 09:43:27;;;;;;;0.10;0.00;;;24.10;99.90;;;;;;5096318;28;20573;-75
2023/06/21 09:46:03;;;;;;;0.10;0.00;;;24.50;99.90;;;;;;5103870;28;20493;-75
2023/06/21 09:48:34;;;;;;;0.10;0.00;;;24.70;99.90;;;;;;5090936;28;20284;-76
2023/06/21 09:51:05;;;;;;;0.10;0.00;;;24.90;99.90;;;;;;5086787;28;20481;-76
2023/06/21 09:53:31;;;;;;;0.10;0.00;;;24.30;99.90;;;;;;5093088;28;20477;-76
2023/06/21 09:55:59;;;;;;;0.10;0.00;;;24.10;99.90;;;;;;5072025;28;20491;-75
2023/06/21 09:58:25;;;;;;;0.10;0.00;;;23.90;99.90;;;;;;5091166;28;20250;-75
2023/06/21 10:00:50;;;;;;;0.10;0.00;;;23.60;99.90;;;;;;5068209;28;21029;-75
2023/06/21 10:03:19;;;;;;;0.10;0.00;;;23.20;99.90;;;;;;5085377;28;20193;-75
2023/06/21 10:05:55;;;;;;;0.10;0.00;;;23.50;99.90;;;;;;5061507;28;20322;-75
2023/06/21 10:08:25;;;;;;;0.10;0.00;;;23.20;99.90;;;;;;5051989;28;20444;-75
2023/06/21 10:10:51;;;;;;;0.10;0.00;;;23.40;99.90;;;;;;5051338;28;20483;-75
2023/06/21 10:13:16;;;;;;;0.10;0.00;;;24.00;99.90;;;;;;5050229;28;20523;-75
2023/06/21 10:15:46;;;;;;;0.00;0.00;;;23.50;99.90;;;;;;5056564;28;20174;-75
2023/06/21 10:18:12;;;;;;;0.10;0.00;;;24.10;99.90;;;;;;5056119;28;20669;-76
2023/06/21 10:20:39;;;;;;;0.10;0.00;;;24.50;99.90;;;;;;5055763;28;20528;-75
2023/06/21 10:23:07;;;;;;;0.10;0.00;;;24.90;99.90;;;;;;5065058;28;20538;-75
2023/06/21 10:25:34;;;;;;;0.10;0.00;;;25.00;99.90;;;;;;5050833;28;20524;-75
2023/06/21 10:28:03;;;;;;;0.10;0.00;;;25.00;99.90;;;;;;5050141;28;20452;-76
2023/06/21 10:30:32;;;;;;;0.10;0.00;;;24.80;99.90;;;;;;5047079;28;20526;-75
2023/06/21 10:33:00;;;;;;;0.10;0.00;;;24.70;99.90;;;;;;5051739;28;20441;-77
2023/06/21 10:35:29;;;;;;;0.10;0.00;;;24.40;99.90;;;;;;5051050;28;20437;-76
2023/06/21 10:38:10;;;;;;;0.10;0.00;;;24.50;99.90;;;;;;5061826;28;20447;-78
2023/06/21 10:40:37;;;;;;;0.10;0.00;;;24.60;99.90;;;;;;5050946;28;20445;-78
2023/06/21 10:43:03;;;;;;;0.10;0.00;;;25.20;99.90;;;;;;5049438;28;20444;-79
2023/06/21 10:45:30;;;;;;;0.10;0.00;;;25.70;99.90;;;;;;5051619;28;20463;-77
2023/06/21 10:47:57;;;;;;;0.10;0.00;;;25.90;99.90;;;;;;5050194;28;20468;-78
2023/06/21 10:50:23;;;;;;;0.10;0.00;;;25.40;99.90;;;;;;5053495;28;20439;-78
2023/06/21 10:52:54;;;;;;;0.10;0.00;;;24.70;99.90;;;;;;5051785;28;20453;-79
2023/06/21 10:55:21;;;;;;;0.10;0.00;;;23.90;99.90;;;;;;5059450;28;20436;-77
2023/06/21 10:57:54;;;;;;;0.10;0.00;;;25.00;99.90;;;;;;5046347;28;20480;-79
2023/06/21 11:00:24;;;;;;;0.10;0.00;;;25.10;99.90;;;;;;5055617;28;20440;-76
2023/06/21 11:02:51;;;;;;;0.10;0.00;;;24.80;99.90;;;;;;5053297;28;20451;-75
2023/06/21 11:05:18;;;;;;;0.10;0.00;;;25.20;99.90;;;;;;5063157;28;20471;-76
2023/06/21 11:07:58;;;;;;;0.10;0.00;;;26.20;99.90;;;;;;5096651;28;21020;-77
2023/06/21 11:10:42;;;;;;;0.10;0.00;;;26.50;99.90;;;;;;5093519;28;20509;-77
2023/06/21 11:13:10;;;;;;;0.10;0.00;;;26.50;99.90;;;;;;5076919;28;20449;-77
2023/06/21 11:15:40;;;;;;;0.10;0.00;;;27.00;99.90;;;;;;5091577;28;20416;-79
2023/06/21 11:18:09;;;;;;;0.10;0.00;;;26.70;99.90;;;;;;5084779;28;20443;-76
2023/06/21 11:20:44;;;;;;;0.10;0.00;;;26.80;99.90;;;;;;5088146;28;20432;-77
2023/06/21 11:23:10;;;;;;;0.10;0.00;;;26.40;99.90;;;;;;5099673;28;20469;-78
2023/06/21 11:25:36;;;;;;;0.10;0.00;;;26.50;99.90;;;;;;5074369;28;20552;-79
2023/06/21 11:28:20;;;;;;;0.10;0.00;;;25.60;99.90;;;;;;5073347;28;20598;-78
2023/06/21 11:31:06;;;;;;;0.10;0.00;;;25.20;99.90;;;;;;5092641;28;21075;-77
2023/06/21 11:33:51;;;;;;;0.10;0.00;;;24.90;99.90;;;;;;5100834;28;20485;-76
2023/06/21 11:36:21;;;;;;;0.10;0.00;;;25.30;99.90;;;;;;5103480;28;20470;-78
2023/06/21 11:39:06;;;;;;;0.10;0.00;;;26.50;99.90;;;;;;5095473;28;20447;-78
2023/06/21 11:41:43;;;;;;;0.10;0.00;;;27.40;99.90;;;;;;5094969;28;20445;-79
2023/06/21 11:44:13;;;;;;;0.10;0.00;;;27.50;99.90;;;;;;5084822;28;20462;-79
2023/06/21 11:46:40;;;;;;;0.10;0.00;;;28.00;99.90;;;;;;5072157;28;20488;-78
2023/06/21 11:49:06;;;;;;;0.10;0.00;;;28.30;99.90;;;;;;5091435;28;20439;-78
2023/06/21 11:51:32;;;;;;;0.10;0.00;;;28.60;99.90;;;;;;5089467;28;20509;-79
2023/06/21 11:53:59;;;;;;;0.10;0.00;;;29.30;99.90;;;;;;5089803;28;21812;-75
2023/06/21 11:56:34;;;;;;;0.10;0.00;;;29.40;99.90;;;;;;5072398;28;20469;-76
2023/06/21 11:59:05;;;;;;;0.10;0.00;;;28.50;99.90;;;;;;5090359;28;20537;-76
2023/06/21 12:01:31;;;;;;;0.10;0.00;;;28.90;99.90;;;;;;5085309;28;20447;-78
2023/06/21 12:04:01;;;;;;;0.10;0.00;;;28.00;99.90;;;;;;5086896;28;20919;-77
2023/06/21 12:06:28;;;;;;;0.10;0.00;;;28.30;99.90;;;;;;5088421;28;20294;-78
2023/06/21 12:08:57;;;;;;;0.10;0.00;;;26.80;99.90;;;;;;5088564;28;20467;-79
2023/06/21 12:11:26;;;;;;;0.10;0.00;;;26.60;99.90;;;;;;5089501;28;20514;-77
2023/06/21 12:13:51;;;;;;;0.10;0.00;;;26.30;99.90;;;;;;5084410;28;20454;-79
2023/06/21 12:16:17;;;;;;;0.10;0.00;;;27.00;99.90;;;;;;5089671;28;20435;-78
2023/06/21 12:18:42;;;;;;;0.10;0.00;;;27.70;99.90;;;;;;5088533;28;20577;-78
2023/06/21 12:21:08;;;;;;;0.10;0.00;;;27.80;99.90;;;;;;5090076;28;20209;-79
2023/06/21 12:23:34;;;;;;;0.10;0.00;;;27.30;99.90;;;;;;5089076;28;20198;-79
2023/06/21 12:26:04;;;;;;;0.10;0.00;;;27.30;99.90;;;;;;5089665;28;20185;-80
2023/06/21 12:28:31;;;;;;;0.10;0.00;;;27.90;99.90;;;;;;5071845;28;20706;-78
2023/06/21 12:30:59;;;;;;;0.10;0.00;;;28.20;99.90;;;;;;5088400;28;20848;-78
2023/06/21 12:33:43;;;;;;;0.10;0.00;;;28.80;99.90;;;;;;5096051;28;20557;-79
2023/06/21 12:36:23;;;;;;;0.10;0.00;;;28.70;99.90;;;;;;5073427;28;20871;-79
2023/06/21 12:39:00;;;;;;;0.10;0.00;;;29.00;99.90;;;;;;5090442;28;20511;-80
2023/06/21 12:41:28;;;;;;;0.10;0.00;;;29.00;99.90;;;;;;5090492;28;20495;-78
2023/06/21 12:43:59;;;;;;;0.10;0.00;;;28.20;99.90;;;;;;5071115;28;20458;-78
2023/06/21 12:46:25;;;;;;;0.10;0.00;;;28.40;99.90;;;;;;5085956;28;20455;-77
2023/06/21 12:48:57;;;;;;;0.10;0.00;;;28.70;99.90;;;;;;5095322;28;21225;-77